sensor_id;sensor_type;location;lat;lon;timestamp;P1;durP1;ratioP1;P2;durP2;ratioP2
61840;SDS011;47773;53.174;6.614;2022-08-25T00:00:36;13.15;;;8.25;;
61840;SDS011;47773;53.174;6.614;2022-08-25T00:03:04;14.75;;;8.07;;
61840;SDS011;47773;53.174;6.614;2022-08-25T00:05:30;14.88;;;7.75;;
61840;SDS011;47773;53.174;6.614;2022-08-25T00:07:56;12.23;;;6.85;;
61840;SDS011;47773;53.174;6.614;2022-08-25T00:10:21;14.88;;;7.28;;
61840;SDS011;47773;53.174;6.614;2022-08-25T00:12:48;12.63;;;7.35;;
61840;SDS011;47773;53.174;6.614;2022-08-25T00:15:13;11.68;;;7.13;;
61840;SDS011;47773;53.174;6.614;2022-08-25T00:17:39;18.23;;;7.35;;
61840;SDS011;47773;53.174;6.614;2022-08-25T00:20:05;18.90;;;7.07;;
61840;SDS011;47773;53.174;6.614;2022-08-25T00:22:33;12.25;;;6.63;;
61840;SDS011;47773;53.174;6.614;2022-08-25T00:24:59;13.25;;;6.82;;
61840;SDS011;47773;53.174;6.614;2022-08-25T00:27:24;15.80;;;7.15;;
61840;SDS011;47773;53.174;6.614;2022-08-25T00:29:50;13.63;;;6.97;;
61840;SDS011;47773;53.174;6.614;2022-08-25T00:32:16;14.60;;;6.65;;
61840;SDS011;47773;53.174;6.614;2022-08-25T00:34:42;17.60;;;7.18;;
61840;SDS011;47773;53.174;6.614;2022-08-25T00:37:08;14.23;;;6.97;;
61840;SDS011;47773;53.174;6.614;2022-08-25T00:39:34;13.73;;;7.38;;
61840;SDS011;47773;53.174;6.614;2022-08-25T00:42:01;19.25;;;8.00;;
61840;SDS011;47773;53.174;6.614;2022-08-25T00:44:28;12.77;;;6.60;;
61840;SDS011;47773;53.174;6.614;2022-08-25T00:46:56;13.88;;;6.78;;
61840;SDS011;47773;53.174;6.614;2022-08-25T00:57:01;13.95;;;6.70;;
61840;SDS011;47773;53.174;6.614;2022-08-25T00:59:29;13.98;;;7.22;;
61840;SDS011;47773;53.174;6.614;2022-08-25T01:01:55;22.33;;;6.80;;
61840;SDS011;47773;53.174;6.614;2022-08-25T01:04:22;16.95;;;6.60;;
61840;SDS011;47773;53.174;6.614;2022-08-25T01:06:49;12.10;;;6.18;;
61840;SDS011;47773;53.174;6.614;2022-08-25T01:09:16;15.35;;;6.55;;
61840;SDS011;47773;53.174;6.614;2022-08-25T01:11:42;14.43;;;6.40;;
61840;SDS011;47773;53.174;6.614;2022-08-25T01:14:09;19.38;;;6.78;;
61840;SDS011;47773;53.174;6.614;2022-08-25T01:16:38;12.13;;;6.75;;
61840;SDS011;47773;53.174;6.614;2022-08-25T01:19:05;14.77;;;6.32;;
61840;SDS011;47773;53.174;6.614;2022-08-25T01:21:36;13.77;;;7.10;;
61840;SDS011;47773;53.174;6.614;2022-08-25T01:24:51;16.90;;;6.63;;
61840;SDS011;47773;53.174;6.614;2022-08-25T01:27:07;21.95;;;7.10;;
61840;SDS011;47773;53.174;6.614;2022-08-25T01:29:34;13.57;;;6.45;;
61840;SDS011;47773;53.174;6.614;2022-08-25T01:32:02;14.20;;;6.53;;
61840;SDS011;47773;53.174;6.614;2022-08-25T01:34:31;19.73;;;6.80;;
61840;SDS011;47773;53.174;6.614;2022-08-25T01:36:59;14.85;;;6.80;;
61840;SDS011;47773;53.174;6.614;2022-08-25T01:39:27;15.57;;;6.80;;
61840;SDS011;47773;53.174;6.614;2022-08-25T01:44:25;17.38;;;6.57;;
61840;SDS011;47773;53.174;6.614;2022-08-25T01:46:51;12.75;;;6.43;;
61840;SDS011;47773;53.174;6.614;2022-08-25T01:49:17;13.63;;;6.57;;
61840;SDS011;47773;53.174;6.614;2022-08-25T01:51:44;16.38;;;6.35;;
61840;SDS011;47773;53.174;6.614;2022-08-25T01:54:12;12.18;;;6.78;;
61840;SDS011;47773;53.174;6.614;2022-08-25T01:56:38;12.30;;;6.22;;
61840;SDS011;47773;53.174;6.614;2022-08-25T01:59:04;14.60;;;7.45;;
61840;SDS011;47773;53.174;6.614;2022-08-25T02:01:30;11.25;;;6.00;;
61840;SDS011;47773;53.174;6.614;2022-08-25T02:03:56;17.98;;;6.28;;
61840;SDS011;47773;53.174;6.614;2022-08-25T02:06:30;13.80;;;6.25;;
61840;SDS011;47773;53.174;6.614;2022-08-25T02:08:58;15.40;;;6.35;;
61840;SDS011;47773;53.174;6.614;2022-08-25T02:11:26;11.15;;;6.40;;
61840;SDS011;47773;53.174;6.614;2022-08-25T02:13:52;11.52;;;6.80;;
61840;SDS011;47773;53.174;6.614;2022-08-25T02:16:19;12.55;;;6.45;;
61840;SDS011;47773;53.174;6.614;2022-08-25T02:18:48;16.77;;;7.47;;
61840;SDS011;47773;53.174;6.614;2022-08-25T02:21:14;15.25;;;7.72;;
61840;SDS011;47773;53.174;6.614;2022-08-25T02:23:40;16.70;;;8.00;;
61840;SDS011;47773;53.174;6.614;2022-08-25T02:26:06;15.45;;;7.68;;
61840;SDS011;47773;53.174;6.614;2022-08-25T02:28:32;16.88;;;8.20;;
61840;SDS011;47773;53.174;6.614;2022-08-25T02:30:58;19.10;;;7.68;;
61840;SDS011;47773;53.174;6.614;2022-08-25T02:33:24;16.50;;;6.90;;
61840;SDS011;47773;53.174;6.614;2022-08-25T02:35:50;11.93;;;7.07;;
61840;SDS011;47773;53.174;6.614;2022-08-25T02:38:16;18.85;;;6.82;;
61840;SDS011;47773;53.174;6.614;2022-08-25T02:40:42;13.40;;;6.43;;
61840;SDS011;47773;53.174;6.614;2022-08-25T02:43:08;15.90;;;6.47;;
61840;SDS011;47773;53.174;6.614;2022-08-25T02:45:34;13.50;;;6.72;;
61840;SDS011;47773;53.174;6.614;2022-08-25T02:48:00;11.63;;;6.50;;
61840;SDS011;47773;53.174;6.614;2022-08-25T02:50:27;14.15;;;6.50;;
61840;SDS011;47773;53.174;6.614;2022-08-25T02:52:53;17.88;;;6.47;;
61840;SDS011;47773;53.174;6.614;2022-08-25T02:55:19;20.30;;;6.35;;
61840;SDS011;47773;53.174;6.614;2022-08-25T02:57:45;15.25;;;6.30;;
61840;SDS011;47773;53.174;6.614;2022-08-25T03:00:12;15.32;;;6.35;;
61840;SDS011;47773;53.174;6.614;2022-08-25T03:02:40;14.35;;;6.43;;
61840;SDS011;47773;53.174;6.614;2022-08-25T03:05:06;17.25;;;6.25;;
61840;SDS011;47773;53.174;6.614;2022-08-25T03:07:34;11.48;;;6.10;;
61840;SDS011;47773;53.174;6.614;2022-08-25T03:10:04;22.48;;;6.15;;
61840;SDS011;47773;53.174;6.614;2022-08-25T03:12:36;10.93;;;5.85;;
61840;SDS011;47773;53.174;6.614;2022-08-25T03:15:02;14.02;;;6.30;;
61840;SDS011;47773;53.174;6.614;2022-08-25T03:17:28;17.83;;;6.40;;
61840;SDS011;47773;53.174;6.614;2022-08-25T03:19:55;15.85;;;6.15;;
61840;SDS011;47773;53.174;6.614;2022-08-25T03:22:21;14.43;;;6.13;;
61840;SDS011;47773;53.174;6.614;2022-08-25T03:24:47;14.93;;;6.22;;
61840;SDS011;47773;53.174;6.614;2022-08-25T03:27:12;16.00;;;6.45;;
61840;SDS011;47773;53.174;6.614;2022-08-25T03:29:38;13.50;;;6.43;;
61840;SDS011;47773;53.174;6.614;2022-08-25T03:32:05;13.57;;;6.18;;
61840;SDS011;47773;53.174;6.614;2022-08-25T03:34:31;13.23;;;6.57;;
61840;SDS011;47773;53.174;6.614;2022-08-25T03:36:56;12.57;;;6.22;;
61840;SDS011;47773;53.174;6.614;2022-08-25T03:39:23;12.75;;;6.55;;
61840;SDS011;47773;53.174;6.614;2022-08-25T03:41:50;10.95;;;6.07;;
61840;SDS011;47773;53.174;6.614;2022-08-25T03:44:17;10.93;;;5.78;;
61840;SDS011;47773;53.174;6.614;2022-08-25T03:46:45;15.60;;;6.65;;
61840;SDS011;47773;53.174;6.614;2022-08-25T03:49:14;19.10;;;6.28;;
61840;SDS011;47773;53.174;6.614;2022-08-25T03:51:45;13.98;;;6.00;;
61840;SDS011;47773;53.174;6.614;2022-08-25T03:54:14;16.55;;;6.40;;
61840;SDS011;47773;53.174;6.614;2022-08-25T03:56:41;11.18;;;5.50;;
61840;SDS011;47773;53.174;6.614;2022-08-25T03:59:07;12.68;;;5.88;;
61840;SDS011;47773;53.174;6.614;2022-08-25T04:01:38;13.10;;;6.40;;
61840;SDS011;47773;53.174;6.614;2022-08-25T04:04:05;11.82;;;6.15;;
61840;SDS011;47773;53.174;6.614;2022-08-25T04:06:32;13.57;;;6.20;;
61840;SDS011;47773;53.174;6.614;2022-08-25T04:08:58;14.43;;;5.97;;
61840;SDS011;47773;53.174;6.614;2022-08-25T04:11:24;15.40;;;6.80;;
61840;SDS011;47773;53.174;6.614;2022-08-25T04:13:51;11.45;;;5.75;;
61840;SDS011;47773;53.174;6.614;2022-08-25T04:16:21;12.68;;;6.65;;
61840;SDS011;47773;53.174;6.614;2022-08-25T04:18:48;13.48;;;6.95;;
61840;SDS011;47773;53.174;6.614;2022-08-25T04:21:15;17.60;;;6.45;;
61840;SDS011;47773;53.174;6.614;2022-08-25T04:23:43;17.80;;;6.65;;
61840;SDS011;47773;53.174;6.614;2022-08-25T04:26:14;12.13;;;6.05;;
61840;SDS011;47773;53.174;6.614;2022-08-25T04:28:48;13.98;;;6.35;;
61840;SDS011;47773;53.174;6.614;2022-08-25T04:31:14;12.65;;;6.53;;
61840;SDS011;47773;53.174;6.614;2022-08-25T04:33:41;22.88;;;7.68;;
61840;SDS011;47773;53.174;6.614;2022-08-25T04:36:08;24.70;;;9.05;;
61840;SDS011;47773;53.174;6.614;2022-08-25T04:38:36;24.70;;;9.85;;
61840;SDS011;47773;53.174;6.614;2022-08-25T04:41:03;25.52;;;11.55;;
61840;SDS011;47773;53.174;6.614;2022-08-25T04:43:30;29.92;;;13.25;;
61840;SDS011;47773;53.174;6.614;2022-08-25T04:45:57;33.30;;;13.38;;
61840;SDS011;47773;53.174;6.614;2022-08-25T04:48:23;34.33;;;13.00;;
61840;SDS011;47773;53.174;6.614;2022-08-25T04:50:50;31.95;;;13.85;;
61840;SDS011;47773;53.174;6.614;2022-08-25T04:53:16;26.33;;;12.27;;
61840;SDS011;47773;53.174;6.614;2022-08-25T04:55:44;26.70;;;13.63;;
61840;SDS011;47773;53.174;6.614;2022-08-25T04:58:10;25.40;;;13.27;;
61840;SDS011;47773;53.174;6.614;2022-08-25T05:00:37;24.73;;;12.82;;
61840;SDS011;47773;53.174;6.614;2022-08-25T05:03:04;28.63;;;12.32;;
61840;SDS011;47773;53.174;6.614;2022-08-25T05:05:31;24.20;;;11.45;;
61840;SDS011;47773;53.174;6.614;2022-08-25T05:07:59;27.20;;;11.77;;
61840;SDS011;47773;53.174;6.614;2022-08-25T05:10:25;26.42;;;11.70;;
61840;SDS011;47773;53.174;6.614;2022-08-25T05:12:51;24.75;;;10.80;;
61840;SDS011;47773;53.174;6.614;2022-08-25T05:15:16;21.27;;;10.38;;
61840;SDS011;47773;53.174;6.614;2022-08-25T05:18:01;20.00;;;10.05;;
61840;SDS011;47773;53.174;6.614;2022-08-25T05:20:27;22.80;;;10.18;;
61840;SDS011;47773;53.174;6.614;2022-08-25T05:22:55;20.10;;;9.63;;
61840;SDS011;47773;53.174;6.614;2022-08-25T05:25:21;22.10;;;9.63;;
61840;SDS011;47773;53.174;6.614;2022-08-25T05:27:47;20.35;;;9.73;;
61840;SDS011;47773;53.174;6.614;2022-08-25T05:30:12;19.98;;;9.27;;
61840;SDS011;47773;53.174;6.614;2022-08-25T05:32:38;20.67;;;9.70;;
61840;SDS011;47773;53.174;6.614;2022-08-25T05:35:04;16.67;;;9.80;;
61840;SDS011;47773;53.174;6.614;2022-08-25T05:37:31;20.63;;;10.35;;
61840;SDS011;47773;53.174;6.614;2022-08-25T05:39:56;23.10;;;8.70;;
61840;SDS011;47773;53.174;6.614;2022-08-25T05:42:22;17.52;;;9.43;;
61840;SDS011;47773;53.174;6.614;2022-08-25T05:44:48;21.60;;;9.00;;
61840;SDS011;47773;53.174;6.614;2022-08-25T05:47:14;22.58;;;10.00;;
61840;SDS011;47773;53.174;6.614;2022-08-25T05:49:40;19.25;;;8.85;;
61840;SDS011;47773;53.174;6.614;2022-08-25T05:52:06;20.80;;;9.23;;
61840;SDS011;47773;53.174;6.614;2022-08-25T05:54:32;21.42;;;9.38;;
61840;SDS011;47773;53.174;6.614;2022-08-25T05:56:57;23.90;;;9.05;;
61840;SDS011;47773;53.174;6.614;2022-08-25T05:59:25;19.38;;;9.20;;
61840;SDS011;47773;53.174;6.614;2022-08-25T06:01:50;19.95;;;9.45;;
61840;SDS011;47773;53.174;6.614;2022-08-25T06:04:34;18.80;;;9.85;;
61840;SDS011;47773;53.174;6.614;2022-08-25T06:07:00;20.63;;;10.65;;
61840;SDS011;47773;53.174;6.614;2022-08-25T06:09:26;26.80;;;9.48;;
61840;SDS011;47773;53.174;6.614;2022-08-25T06:11:52;18.25;;;9.45;;
61840;SDS011;47773;53.174;6.614;2022-08-25T06:14:18;20.48;;;9.50;;
61840;SDS011;47773;53.174;6.614;2022-08-25T06:16:44;20.85;;;9.27;;
61840;SDS011;47773;53.174;6.614;2022-08-25T06:19:12;18.42;;;9.45;;
61840;SDS011;47773;53.174;6.614;2022-08-25T06:21:39;21.38;;;9.82;;
61840;SDS011;47773;53.174;6.614;2022-08-25T06:24:05;17.92;;;10.30;;
61840;SDS011;47773;53.174;6.614;2022-08-25T06:26:31;19.80;;;9.88;;
61840;SDS011;47773;53.174;6.614;2022-08-25T06:28:58;18.05;;;9.93;;
61840;SDS011;47773;53.174;6.614;2022-08-25T06:31:23;17.73;;;9.55;;
61840;SDS011;47773;53.174;6.614;2022-08-25T06:33:49;26.42;;;9.98;;
61840;SDS011;47773;53.174;6.614;2022-08-25T06:36:15;26.98;;;10.05;;
61840;SDS011;47773;53.174;6.614;2022-08-25T06:38:41;24.70;;;10.68;;
61840;SDS011;47773;53.174;6.614;2022-08-25T06:41:08;19.75;;;9.88;;
61840;SDS011;47773;53.174;6.614;2022-08-25T06:43:38;18.95;;;9.27;;
61840;SDS011;47773;53.174;6.614;2022-08-25T06:46:11;18.33;;;10.18;;
61840;SDS011;47773;53.174;6.614;2022-08-25T06:48:41;20.02;;;9.52;;
61840;SDS011;47773;53.174;6.614;2022-08-25T06:51:08;16.25;;;9.70;;
61840;SDS011;47773;53.174;6.614;2022-08-25T06:53:36;22.08;;;9.80;;
61840;SDS011;47773;53.174;6.614;2022-08-25T06:56:02;29.40;;;10.10;;
61840;SDS011;47773;53.174;6.614;2022-08-25T06:58:29;25.77;;;9.43;;
61840;SDS011;47773;53.174;6.614;2022-08-25T07:00:55;20.65;;;9.13;;
61840;SDS011;47773;53.174;6.614;2022-08-25T07:03:21;21.08;;;9.30;;
61840;SDS011;47773;53.174;6.614;2022-08-25T07:05:50;24.48;;;9.50;;
61840;SDS011;47773;53.174;6.614;2022-08-25T07:08:18;20.20;;;9.38;;
61840;SDS011;47773;53.174;6.614;2022-08-25T07:10:44;21.38;;;9.30;;
61840;SDS011;47773;53.174;6.614;2022-08-25T07:13:10;24.08;;;8.98;;
61840;SDS011;47773;53.174;6.614;2022-08-25T07:15:37;22.30;;;9.10;;
61840;SDS011;47773;53.174;6.614;2022-08-25T07:18:03;19.75;;;9.50;;
61840;SDS011;47773;53.174;6.614;2022-08-25T07:20:30;21.13;;;9.18;;
61840;SDS011;47773;53.174;6.614;2022-08-25T07:22:56;32.20;;;9.82;;
61840;SDS011;47773;53.174;6.614;2022-08-25T07:25:22;17.20;;;8.30;;
61840;SDS011;47773;53.174;6.614;2022-08-25T07:27:48;16.80;;;8.10;;
61840;SDS011;47773;53.174;6.614;2022-08-25T07:30:13;22.02;;;7.57;;
61840;SDS011;47773;53.174;6.614;2022-08-25T07:32:41;18.15;;;8.70;;
61840;SDS011;47773;53.174;6.614;2022-08-25T07:35:06;15.05;;;7.75;;
61840;SDS011;47773;53.174;6.614;2022-08-25T07:37:43;15.55;;;7.32;;
61840;SDS011;47773;53.174;6.614;2022-08-25T07:40:22;16.80;;;8.20;;
61840;SDS011;47773;53.174;6.614;2022-08-25T07:42:53;13.52;;;7.32;;
61840;SDS011;47773;53.174;6.614;2022-08-25T07:45:21;14.15;;;6.95;;
61840;SDS011;47773;53.174;6.614;2022-08-25T07:47:54;16.23;;;6.90;;
61840;SDS011;47773;53.174;6.614;2022-08-25T07:50:24;15.98;;;7.72;;
61840;SDS011;47773;53.174;6.614;2022-08-25T07:52:50;21.85;;;7.78;;
61840;SDS011;47773;53.174;6.614;2022-08-25T07:55:16;21.67;;;8.23;;
61840;SDS011;47773;53.174;6.614;2022-08-25T07:57:42;14.68;;;8.15;;
61840;SDS011;47773;53.174;6.614;2022-08-25T08:00:08;22.58;;;8.18;;
61840;SDS011;47773;53.174;6.614;2022-08-25T08:02:38;24.48;;;7.95;;
61840;SDS011;47773;53.174;6.614;2022-08-25T08:05:05;21.65;;;8.00;;
61840;SDS011;47773;53.174;6.614;2022-08-25T08:07:32;12.80;;;7.65;;
61840;SDS011;47773;53.174;6.614;2022-08-25T08:09:57;27.17;;;7.68;;
61840;SDS011;47773;53.174;6.614;2022-08-25T08:12:24;19.00;;;8.85;;
61840;SDS011;47773;53.174;6.614;2022-08-25T08:14:51;15.98;;;7.82;;
61840;SDS011;47773;53.174;6.614;2022-08-25T08:17:17;17.10;;;8.30;;
61840;SDS011;47773;53.174;6.614;2022-08-25T08:19:44;18.27;;;8.10;;
61840;SDS011;47773;53.174;6.614;2022-08-25T08:22:10;17.40;;;7.57;;
61840;SDS011;47773;53.174;6.614;2022-08-25T08:24:39;16.92;;;7.93;;
61840;SDS011;47773;53.174;6.614;2022-08-25T08:27:06;15.13;;;7.78;;
61840;SDS011;47773;53.174;6.614;2022-08-25T08:29:33;16.23;;;8.23;;
61840;SDS011;47773;53.174;6.614;2022-08-25T08:32:00;13.13;;;7.40;;
61840;SDS011;47773;53.174;6.614;2022-08-25T08:34:27;20.63;;;8.13;;
61840;SDS011;47773;53.174;6.614;2022-08-25T08:36:53;19.55;;;7.93;;
61840;SDS011;47773;53.174;6.614;2022-08-25T08:39:19;15.18;;;7.25;;
61840;SDS011;47773;53.174;6.614;2022-08-25T08:41:48;15.15;;;7.30;;
61840;SDS011;47773;53.174;6.614;2022-08-25T08:50:19;12.68;;;7.20;;
61840;SDS011;47773;53.174;6.614;2022-08-25T08:53:15;19.35;;;7.60;;
61840;SDS011;47773;53.174;6.614;2022-08-25T09:00:45;12.18;;;6.13;;
61840;SDS011;47773;53.174;6.614;2022-08-25T09:03:23;11.73;;;6.85;;
61840;SDS011;47773;53.174;6.614;2022-08-25T09:05:55;15.07;;;6.53;;
61840;SDS011;47773;53.174;6.614;2022-08-25T09:08:24;16.88;;;6.93;;
61840;SDS011;47773;53.174;6.614;2022-08-25T09:16:01;14.65;;;5.88;;
61840;SDS011;47773;53.174;6.614;2022-08-25T09:25:00;10.57;;;6.07;;
61840;SDS011;47773;53.174;6.614;2022-08-25T09:30:21;14.50;;;5.85;;
61840;SDS011;47773;53.174;6.614;2022-08-25T09:32:51;11.05;;;5.15;;
61840;SDS011;47773;53.174;6.614;2022-08-25T09:35:27;13.70;;;4.90;;
61840;SDS011;47773;53.174;6.614;2022-08-25T09:38:05;16.10;;;5.15;;
61840;SDS011;47773;53.174;6.614;2022-08-25T09:40:37;27.88;;;5.60;;
61840;SDS011;47773;53.174;6.614;2022-08-25T09:43:17;9.32;;;5.40;;
61840;SDS011;47773;53.174;6.614;2022-08-25T09:46:08;11.73;;;5.38;;
61840;SDS011;47773;53.174;6.614;2022-08-25T09:48:49;13.48;;;5.10;;
61840;SDS011;47773;53.174;6.614;2022-08-25T09:54:02;10.45;;;4.95;;
61840;SDS011;47773;53.174;6.614;2022-08-25T09:56:31;16.55;;;5.07;;
61840;SDS011;47773;53.174;6.614;2022-08-25T09:59:17;11.00;;;5.18;;
61840;SDS011;47773;53.174;6.614;2022-08-25T10:01:46;11.27;;;4.85;;
61840;SDS011;47773;53.174;6.614;2022-08-25T10:04:14;12.98;;;5.63;;
61840;SDS011;47773;53.174;6.614;2022-08-25T10:06:49;15.63;;;5.32;;
61840;SDS011;47773;53.174;6.614;2022-08-25T10:09:24;9.00;;;4.82;;
61840;SDS011;47773;53.174;6.614;2022-08-25T10:11:57;13.60;;;4.15;;
61840;SDS011;47773;53.174;6.614;2022-08-25T10:19:52;14.40;;;4.22;;
61840;SDS011;47773;53.174;6.614;2022-08-25T10:22:21;8.07;;;4.38;;
61840;SDS011;47773;53.174;6.614;2022-08-25T10:24:56;13.52;;;3.95;;
61840;SDS011;47773;53.174;6.614;2022-08-25T10:27:28;11.20;;;4.60;;
61840;SDS011;47773;53.174;6.614;2022-08-25T10:35:44;12.18;;;4.63;;
61840;SDS011;47773;53.174;6.614;2022-08-25T10:38:24;11.07;;;3.95;;
61840;SDS011;47773;53.174;6.614;2022-08-25T10:44:09;8.68;;;4.07;;
61840;SDS011;47773;53.174;6.614;2022-08-25T10:49:49;8.95;;;3.95;;
61840;SDS011;47773;53.174;6.614;2022-08-25T10:52:21;12.82;;;4.55;;
61840;SDS011;47773;53.174;6.614;2022-08-25T10:54:57;11.32;;;4.90;;
61840;SDS011;47773;53.174;6.614;2022-08-25T11:07:45;11.15;;;4.32;;
61840;SDS011;47773;53.174;6.614;2022-08-25T11:10:16;12.13;;;4.63;;
61840;SDS011;47773;53.174;6.614;2022-08-25T11:12:51;14.70;;;4.82;;
61840;SDS011;47773;53.174;6.614;2022-08-25T11:18:01;11.27;;;4.50;;
61840;SDS011;47773;53.174;6.614;2022-08-25T11:20:46;16.58;;;4.32;;
61840;SDS011;47773;53.174;6.614;2022-08-25T11:23:36;11.45;;;4.50;;
61840;SDS011;47773;53.174;6.614;2022-08-25T11:26:09;13.32;;;4.53;;
61840;SDS011;47773;53.174;6.614;2022-08-25T11:31:24;8.40;;;3.90;;
61840;SDS011;47773;53.174;6.614;2022-08-25T11:33:51;6.90;;;3.40;;
61840;SDS011;47773;53.174;6.614;2022-08-25T11:49:52;10.82;;;3.80;;
61840;SDS011;47773;53.174;6.614;2022-08-25T11:58:42;8.93;;;4.60;;
61840;SDS011;47773;53.174;6.614;2022-08-25T12:01:57;12.75;;;4.13;;
61840;SDS011;47773;53.174;6.614;2022-08-25T12:17:42;11.55;;;3.58;;
61840;SDS011;47773;53.174;6.614;2022-08-25T12:20:08;9.85;;;3.75;;
61840;SDS011;47773;53.174;6.614;2022-08-25T12:25:04;9.35;;;3.90;;
61840;SDS011;47773;53.174;6.614;2022-08-25T12:30:23;9.00;;;4.18;;
61840;SDS011;47773;53.174;6.614;2022-08-25T12:35:31;10.45;;;4.40;;
61840;SDS011;47773;53.174;6.614;2022-08-25T12:43:04;7.13;;;4.35;;
61840;SDS011;47773;53.174;6.614;2022-08-25T12:45:43;9.35;;;4.05;;
61840;SDS011;47773;53.174;6.614;2022-08-25T12:51:04;8.57;;;4.18;;
61840;SDS011;47773;53.174;6.614;2022-08-25T13:04:53;13.93;;;3.90;;
61840;SDS011;47773;53.174;6.614;2022-08-25T13:10:42;9.68;;;4.13;;
61840;SDS011;47773;53.174;6.614;2022-08-25T13:13:36;5.30;;;3.63;;
61840;SDS011;47773;53.174;6.614;2022-08-25T13:16:05;14.23;;;4.00;;
61840;SDS011;47773;53.174;6.614;2022-08-25T13:18:34;10.98;;;4.13;;
61840;SDS011;47773;53.174;6.614;2022-08-25T13:21:22;10.02;;;4.10;;
61840;SDS011;47773;53.174;6.614;2022-08-25T13:23:53;8.18;;;3.88;;
61840;SDS011;47773;53.174;6.614;2022-08-25T13:26:22;5.75;;;3.72;;
61840;SDS011;47773;53.174;6.614;2022-08-25T13:28:58;7.57;;;4.00;;
61840;SDS011;47773;53.174;6.614;2022-08-25T13:31:25;8.75;;;3.83;;
61840;SDS011;47773;53.174;6.614;2022-08-25T13:33:58;14.07;;;4.07;;
61840;SDS011;47773;53.174;6.614;2022-08-25T13:36:34;7.82;;;4.00;;
61840;SDS011;47773;53.174;6.614;2022-08-25T13:39:30;10.85;;;4.10;;
61840;SDS011;47773;53.174;6.614;2022-08-25T13:42:00;10.80;;;4.40;;
61840;SDS011;47773;53.174;6.614;2022-08-25T13:44:28;8.25;;;4.85;;
61840;SDS011;47773;53.174;6.614;2022-08-25T13:47:05;10.05;;;4.15;;
61840;SDS011;47773;53.174;6.614;2022-08-25T13:49:34;34.83;;;4.32;;
61840;SDS011;47773;53.174;6.614;2022-08-25T13:52:01;336.05;;;13.82;;
61840;SDS011;47773;53.174;6.614;2022-08-25T13:54:30;10.48;;;3.85;;
61840;SDS011;47773;53.174;6.614;2022-08-25T13:57:04;8.43;;;3.40;;
61840;SDS011;47773;53.174;6.614;2022-08-25T13:59:33;8.43;;;3.72;;
61840;SDS011;47773;53.174;6.614;2022-08-25T14:02:02;8.10;;;3.97;;
61840;SDS011;47773;53.174;6.614;2022-08-25T14:07:04;10.05;;;4.30;;
61840;SDS011;47773;53.174;6.614;2022-08-25T14:09:36;10.23;;;4.05;;
61840;SDS011;47773;53.174;6.614;2022-08-25T14:12:04;7.20;;;3.95;;
61840;SDS011;47773;53.174;6.614;2022-08-25T14:14:31;9.25;;;4.47;;
61840;SDS011;47773;53.174;6.614;2022-08-25T14:17:05;9.75;;;4.55;;
61840;SDS011;47773;53.174;6.614;2022-08-25T14:19:34;11.52;;;4.78;;
61840;SDS011;47773;53.174;6.614;2022-08-25T14:22:08;38.78;;;5.25;;
61840;SDS011;47773;53.174;6.614;2022-08-25T14:24:33;8.05;;;4.53;;
61840;SDS011;47773;53.174;6.614;2022-08-25T14:27:00;9.68;;;4.68;;
61840;SDS011;47773;53.174;6.614;2022-08-25T14:29:26;12.55;;;5.70;;
61840;SDS011;47773;53.174;6.614;2022-08-25T14:31:52;9.20;;;4.60;;
61840;SDS011;47773;53.174;6.614;2022-08-25T14:34:24;10.45;;;5.07;;
61840;SDS011;47773;53.174;6.614;2022-08-25T14:36:57;17.75;;;4.95;;
61840;SDS011;47773;53.174;6.614;2022-08-25T14:39:24;13.45;;;5.18;;
61840;SDS011;47773;53.174;6.614;2022-08-25T14:41:50;19.90;;;5.65;;
61840;SDS011;47773;53.174;6.614;2022-08-25T14:44:16;12.93;;;4.88;;
61840;SDS011;47773;53.174;6.614;2022-08-25T14:46:50;11.38;;;5.50;;
61840;SDS011;47773;53.174;6.614;2022-08-25T14:49:22;12.95;;;5.40;;
61840;SDS011;47773;53.174;6.614;2022-08-25T14:51:50;9.85;;;5.22;;
61840;SDS011;47773;53.174;6.614;2022-08-25T14:54:17;7.07;;;5.13;;
61840;SDS011;47773;53.174;6.614;2022-08-25T14:56:44;10.30;;;5.05;;
61840;SDS011;47773;53.174;6.614;2022-08-25T14:59:12;13.52;;;5.53;;
61840;SDS011;47773;53.174;6.614;2022-08-25T15:01:38;15.43;;;5.68;;
61840;SDS011;47773;53.174;6.614;2022-08-25T15:04:15;13.63;;;5.80;;
61840;SDS011;47773;53.174;6.614;2022-08-25T15:09:14;21.05;;;5.40;;
61840;SDS011;47773;53.174;6.614;2022-08-25T15:11:42;9.45;;;4.95;;
61840;SDS011;47773;53.174;6.614;2022-08-25T15:14:13;9.13;;;5.00;;
61840;SDS011;47773;53.174;6.614;2022-08-25T15:16:41;11.38;;;5.50;;
61840;SDS011;47773;53.174;6.614;2022-08-25T15:21:40;13.18;;;5.40;;
61840;SDS011;47773;53.174;6.614;2022-08-25T15:24:07;16.25;;;6.75;;
61840;SDS011;47773;53.174;6.614;2022-08-25T15:27:07;13.02;;;5.82;;
61840;SDS011;47773;53.174;6.614;2022-08-25T15:29:28;10.98;;;5.85;;
61840;SDS011;47773;53.174;6.614;2022-08-25T15:31:55;10.02;;;5.10;;
61840;SDS011;47773;53.174;6.614;2022-08-25T15:34:21;10.98;;;5.28;;
61840;SDS011;47773;53.174;6.614;2022-08-25T15:36:47;14.07;;;5.38;;
61840;SDS011;47773;53.174;6.614;2022-08-25T15:39:13;10.02;;;5.38;;
61840;SDS011;47773;53.174;6.614;2022-08-25T15:41:39;11.23;;;5.63;;
61840;SDS011;47773;53.174;6.614;2022-08-25T15:44:05;15.93;;;5.30;;
61840;SDS011;47773;53.174;6.614;2022-08-25T15:46:32;15.02;;;5.50;;
61840;SDS011;47773;53.174;6.614;2022-08-25T15:48:59;17.15;;;5.38;;
61840;SDS011;47773;53.174;6.614;2022-08-25T15:51:27;14.15;;;5.18;;
61840;SDS011;47773;53.174;6.614;2022-08-25T15:53:53;10.00;;;5.32;;
61840;SDS011;47773;53.174;6.614;2022-08-25T15:56:20;11.23;;;5.68;;
61840;SDS011;47773;53.174;6.614;2022-08-25T15:58:47;12.57;;;5.78;;
61840;SDS011;47773;53.174;6.614;2022-08-25T16:01:14;9.43;;;5.47;;
61840;SDS011;47773;53.174;6.614;2022-08-25T16:03:43;9.98;;;5.72;;
61840;SDS011;47773;53.174;6.614;2022-08-25T16:06:08;13.48;;;4.93;;
61840;SDS011;47773;53.174;6.614;2022-08-25T16:08:34;10.95;;;4.95;;
61840;SDS011;47773;53.174;6.614;2022-08-25T16:11:01;16.17;;;5.35;;
61840;SDS011;47773;53.174;6.614;2022-08-25T16:13:27;14.07;;;5.13;;
61840;SDS011;47773;53.174;6.614;2022-08-25T16:15:52;8.77;;;5.47;;
61840;SDS011;47773;53.174;6.614;2022-08-25T16:18:19;10.50;;;5.25;;
61840;SDS011;47773;53.174;6.614;2022-08-25T16:20:46;16.55;;;5.18;;
61840;SDS011;47773;53.174;6.614;2022-08-25T16:23:12;12.48;;;5.22;;
61840;SDS011;47773;53.174;6.614;2022-08-25T16:25:43;13.57;;;5.45;;
61840;SDS011;47773;53.174;6.614;2022-08-25T16:28:10;10.10;;;5.20;;
61840;SDS011;47773;53.174;6.614;2022-08-25T16:30:37;10.52;;;5.05;;
61840;SDS011;47773;53.174;6.614;2022-08-25T16:33:04;10.02;;;4.95;;
61840;SDS011;47773;53.174;6.614;2022-08-25T16:35:31;10.18;;;5.20;;
61840;SDS011;47773;53.174;6.614;2022-08-25T16:37:57;12.82;;;5.15;;
61840;SDS011;47773;53.174;6.614;2022-08-25T16:40:23;8.13;;;4.93;;
61840;SDS011;47773;53.174;6.614;2022-08-25T16:42:50;8.65;;;5.15;;
61840;SDS011;47773;53.174;6.614;2022-08-25T16:45:17;10.02;;;5.22;;
61840;SDS011;47773;53.174;6.614;2022-08-25T16:47:43;11.23;;;5.25;;
61840;SDS011;47773;53.174;6.614;2022-08-25T16:50:09;18.40;;;5.63;;
61840;SDS011;47773;53.174;6.614;2022-08-25T16:52:35;9.80;;;5.57;;
61840;SDS011;47773;53.174;6.614;2022-08-25T16:55:20;15.02;;;5.07;;
61840;SDS011;47773;53.174;6.614;2022-08-25T16:57:49;11.98;;;5.90;;
61840;SDS011;47773;53.174;6.614;2022-08-25T17:00:22;8.93;;;5.40;;
61840;SDS011;47773;53.174;6.614;2022-08-25T17:02:49;8.80;;;5.47;;
61840;SDS011;47773;53.174;6.614;2022-08-25T17:05:18;9.15;;;5.50;;
61840;SDS011;47773;53.174;6.614;2022-08-25T17:07:45;12.27;;;5.57;;